createdAt,value
2018-11-07T00:03:04.021Z,78.5
2018-11-07T00:08:04.962Z,78.4
2018-11-07T00:12:27.727Z,78.3
2018-11-07T00:17:28.396Z,78.3
2018-11-07T00:22:28.226Z,78.4
2018-11-07T00:27:28.824Z,78.3
2018-11-07T00:32:28.305Z,78.3
2018-11-07T00:37:28.403Z,78.2
2018-11-07T00:42:27.768Z,78.2
2018-11-07T00:47:28.432Z,78.3
2018-11-07T00:52:28.729Z,78.1
2018-11-07T00:57:28.180Z,78.0
2018-11-07T01:02:28.302Z,78.1
2018-11-07T01:07:28.644Z,78.1
2018-11-07T01:12:27.603Z,78.2
2018-11-07T01:17:28.469Z,78.1
2018-11-07T01:22:28.409Z,77.9
2018-11-07T01:27:28.225Z,78.1
2018-11-07T01:32:27.999Z,78.0
2018-11-07T01:37:28.219Z,77.9
2018-11-07T01:42:28.183Z,77.7
2018-11-07T01:47:28.867Z,77.4
2018-11-07T01:52:28.081Z,77.4
2018-11-07T01:57:28.811Z,77.4
2018-11-07T02:02:27.879Z,77.2
2018-11-07T02:07:28.990Z,77.2
2018-11-07T02:12:28.519Z,77.3
2018-11-07T02:17:28.575Z,77.0
2018-11-07T02:22:28.389Z,77.0
2018-11-07T02:27:28.862Z,77.0
2018-11-07T02:32:28.193Z,77.3
2018-11-07T02:37:28.280Z,77.4
2018-11-07T02:42:28.689Z,77.0
2018-11-07T02:47:27.728Z,76.5
2018-11-07T02:52:28.091Z,76.6
2018-11-07T02:57:27.816Z,76.6
2018-11-07T03:02:28.009Z,76.4
2018-11-07T03:07:28.994Z,76.5
2018-11-07T03:12:27.798Z,76.6
2018-11-07T03:17:29.750Z,76.4
2018-11-07T03:22:28.017Z,76.4
2018-11-07T03:27:30.175Z,76.5
2018-11-07T03:32:28.013Z,76.6
2018-11-07T03:37:29.265Z,76.2
2018-11-07T03:42:28.652Z,76.0
2018-11-07T03:47:28.229Z,76.0
2018-11-07T03:52:28.252Z,75.9
2018-11-07T03:57:27.620Z,75.9
2018-11-07T04:02:28.647Z,76.1
2018-11-07T04:07:28.860Z,75.9
2018-11-07T04:12:29.904Z,75.9
2018-11-07T04:17:28.680Z,75.8
2018-11-07T04:22:28.176Z,75.6
2018-11-07T04:27:28.065Z,75.3
2018-11-07T04:32:28.297Z,75.2
2018-11-07T04:37:28.623Z,75.0
2018-11-07T04:42:27.832Z,75.1
2018-11-07T04:47:28.228Z,74.9
2018-11-07T04:52:28.063Z,75.3
2018-11-07T04:57:27.658Z,75.3
2018-11-07T05:02:28.629Z,75.2
2018-11-07T05:07:28.329Z,75.2
2018-11-07T05:12:28.561Z,75.0
2018-11-07T05:17:28.567Z,74.6
2018-11-07T05:22:28.657Z,75.0
2018-11-07T05:27:28.180Z,74.7
2018-11-07T05:32:29.156Z,74.7
2018-11-07T05:37:28.614Z,74.7
2018-11-07T05:42:28.426Z,74.8
2018-11-07T05:47:28.755Z,74.5
2018-11-07T05:52:27.877Z,74.1
2018-11-07T05:57:28.870Z,74.4
2018-11-07T06:02:29.282Z,74.5
2018-11-07T06:07:28.056Z,74.6
2018-11-07T06:12:28.982Z,74.5
2018-11-07T06:17:29.121Z,74.6
2018-11-07T06:22:28.508Z,75.0
2018-11-07T06:27:28.755Z,74.7
2018-11-07T06:32:28.766Z,74.6
2018-11-07T06:37:29.175Z,74.4
2018-11-07T06:42:29.631Z,74.5
2018-11-07T06:47:28.167Z,74.6
2018-11-07T06:52:28.459Z,74.4
2018-11-07T06:57:28.968Z,74.1
2018-11-07T07:02:29.179Z,73.8
2018-11-07T07:07:29.199Z,73.8
2018-11-07T07:12:28.733Z,73.9
2018-11-07T07:17:30.216Z,73.8
2018-11-07T07:22:28.849Z,73.6
2018-11-07T07:27:28.869Z,73.6
2018-11-07T07:32:28.886Z,73.4
2018-11-07T07:37:27.923Z,73.2
2018-11-07T07:42:29.330Z,72.9
2018-11-07T07:47:29.276Z,72.9
2018-11-07T07:52:28.241Z,72.6
2018-11-07T07:57:28.159Z,72.5
2018-11-07T08:02:30.074Z,72.4
2018-11-07T08:07:29.226Z,72.4
2018-11-07T08:12:29.229Z,72.5
2018-11-07T08:17:29.455Z,72.4
2018-11-07T08:22:28.462Z,72.5
2018-11-07T08:27:29.156Z,72.4
2018-11-07T08:32:29.027Z,72.6
2018-11-07T08:37:28.602Z,72.5
2018-11-07T08:42:29.148Z,72.7
2018-11-07T08:47:29.799Z,72.7
2018-11-07T08:52:29.359Z,72.8
2018-11-07T08:57:29.179Z,72.9
2018-11-07T09:02:28.948Z,73.0
2018-11-07T09:07:28.704Z,73.3
2018-11-07T09:12:29.262Z,73.3
2018-11-07T09:17:29.075Z,73.6
2018-11-07T09:22:29.597Z,73.7
2018-11-07T09:27:28.332Z,73.9
2018-11-07T09:32:28.548Z,73.9
2018-11-07T09:37:29.521Z,74.2
2018-11-07T09:42:28.809Z,74.2
2018-11-07T09:47:29.260Z,74.5
2018-11-07T09:52:29.605Z,75.0
2018-11-07T09:57:28.364Z,75.0
2018-11-07T10:02:28.411Z,75.2
2018-11-07T10:07:29.852Z,75.6
2018-11-07T10:12:28.185Z,76.0
2018-11-07T10:17:29.257Z,76.1
2018-11-07T10:22:28.436Z,76.6
2018-11-07T10:27:30.250Z,76.6
2018-11-07T10:32:28.656Z,76.9
2018-11-07T10:37:33.151Z,77.6
2018-11-07T10:42:29.375Z,77.7
2018-11-07T10:47:29.465Z,78.1
2018-11-07T10:52:29.267Z,78.3
2018-11-07T10:57:28.788Z,78.3
2018-11-07T11:02:28.241Z,78.6
2018-11-07T11:07:29.151Z,78.8
2018-11-07T11:12:28.513Z,79.0
2018-11-07T11:17:29.200Z,79.3
2018-11-07T11:22:29.157Z,79.4
2018-11-07T11:27:28.890Z,79.3
2018-11-07T11:32:28.920Z,79.6
2018-11-07T11:37:28.788Z,79.6
2018-11-07T11:42:28.926Z,80.0
2018-11-07T11:47:29.197Z,80.0
2018-11-07T11:52:28.757Z,80.3
2018-11-07T11:57:28.638Z,80.2
2018-11-07T12:02:29.028Z,80.8
2018-11-07T12:07:29.542Z,80.8
2018-11-07T12:12:28.646Z,80.9
2018-11-07T12:17:29.430Z,81.0
2018-11-07T12:22:28.728Z,81.4
2018-11-07T12:27:28.779Z,81.4
2018-11-07T12:32:30.143Z,81.6
2018-11-07T12:37:28.777Z,81.8
2018-11-07T12:42:29.017Z,81.9
2018-11-07T12:47:29.476Z,81.9
2018-11-07T12:52:28.900Z,82.1
2018-11-07T12:57:28.694Z,82.3
2018-11-07T13:02:28.927Z,82.1
2018-11-07T13:07:29.466Z,82.6
2018-11-07T13:12:28.196Z,82.7
2018-11-07T13:17:29.313Z,82.7
2018-11-07T13:22:29.073Z,81.4
2018-11-07T13:27:28.930Z,81.4
2018-11-07T13:32:29.446Z,82.0
2018-11-07T13:37:29.358Z,81.4
2018-11-07T13:42:28.850Z,80.8
2018-11-07T13:47:28.903Z,79.6
2018-11-07T13:52:28.561Z,79.3
2018-11-07T13:57:28.761Z,78.0
2018-11-07T14:02:29.138Z,75.9
2018-11-07T14:07:29.312Z,75.8
2018-11-07T14:12:29.498Z,75.8
2018-11-07T14:17:29.265Z,74.3
2018-11-07T14:22:29.744Z,72.6
2018-11-07T14:27:28.285Z,71.0
2018-11-07T14:32:28.843Z,70.1
2018-11-07T14:37:29.009Z,69.6
2018-11-07T14:42:29.436Z,68.8
2018-11-07T14:47:28.278Z,73.4
2018-11-07T14:52:29.457Z,76.4
2018-11-07T14:57:28.290Z,78.4
2018-11-07T15:02:29.350Z,80.0
2018-11-07T15:07:30.662Z,82.1
2018-11-07T15:12:29.365Z,82.0
2018-11-07T15:17:29.693Z,82.6
2018-11-07T15:22:28.157Z,82.8
2018-11-07T15:27:28.820Z,83.1
2018-11-07T15:32:28.607Z,83.2
2018-11-07T15:37:28.323Z,82.8
2018-11-07T15:42:28.854Z,82.4
2018-11-07T15:47:30.036Z,82.3
2018-11-07T15:52:28.498Z,82.1
2018-11-07T15:57:28.839Z,82.3
2018-11-07T16:02:28.809Z,82.3
2018-11-07T16:07:28.729Z,82.3
2018-11-07T16:12:28.197Z,82.2
2018-11-07T16:17:28.661Z,81.6
2018-11-07T16:22:28.479Z,81.5
2018-11-07T16:27:28.739Z,81.8
2018-11-07T16:32:28.553Z,81.7
2018-11-07T16:37:28.291Z,81.4
2018-11-07T16:42:29.063Z,81.1
2018-11-07T16:47:28.537Z,80.9
2018-11-07T16:52:27.805Z,80.9
2018-11-07T16:57:28.341Z,80.6
2018-11-07T17:02:28.680Z,80.6
2018-11-07T17:07:28.629Z,80.5
2018-11-07T17:12:28.522Z,80.2
2018-11-07T17:17:29.114Z,80.2
2018-11-07T17:22:28.627Z,80.0
2018-11-07T17:27:28.404Z,79.8
2018-11-07T17:32:28.140Z,79.7
2018-11-07T17:37:28.136Z,79.5
2018-11-07T17:42:28.148Z,79.5
2018-11-07T17:47:28.304Z,79.1
2018-11-07T17:52:28.373Z,79.0
2018-11-07T17:57:27.963Z,79.0
2018-11-07T18:02:28.118Z,79.0
2018-11-07T18:07:28.789Z,78.9
2018-11-07T18:12:29.265Z,78.8
2018-11-07T18:17:28.209Z,78.5
2018-11-07T18:22:28.334Z,78.3
2018-11-07T18:27:28.271Z,78.4
2018-11-07T18:32:28.025Z,78.1
2018-11-07T18:37:28.593Z,78.1
2018-11-07T18:42:27.715Z,77.7
2018-11-07T18:47:28.454Z,77.8
2018-11-07T18:52:28.108Z,77.8
2018-11-07T18:57:28.510Z,77.8
2018-11-07T19:02:28.706Z,78.0
2018-11-07T19:07:29.022Z,77.4
2018-11-07T19:12:28.308Z,77.4
2018-11-07T19:17:28.169Z,77.3
2018-11-07T19:22:28.984Z,77.2
2018-11-07T19:27:28.222Z,77.0
2018-11-07T19:32:28.137Z,77.2
2018-11-07T19:37:27.817Z,77.1
2018-11-07T19:42:27.772Z,77.0
2018-11-07T19:47:28.850Z,77.1
2018-11-07T19:52:28.351Z,77.1
2018-11-07T19:57:28.303Z,77.1
2018-11-07T20:02:28.111Z,77.3
2018-11-07T20:07:30.178Z,77.1
2018-11-07T20:12:28.484Z,77.1
2018-11-07T20:17:28.474Z,77.1
2018-11-07T20:22:28.615Z,77.1
2018-11-07T20:27:28.341Z,77.2
2018-11-07T20:32:28.208Z,77.2
2018-11-07T20:37:28.345Z,77.1
2018-11-07T20:42:28.301Z,77.1
2018-11-07T20:47:27.635Z,77.1
2018-11-07T20:52:28.927Z,77.3
2018-11-07T20:57:27.991Z,77.4
2018-11-07T21:02:29.447Z,77.2
2018-11-07T21:07:28.559Z,77.0
2018-11-07T21:12:28.440Z,76.8
2018-11-07T21:17:28.982Z,77.3
2018-11-07T21:22:28.396Z,77.2
2018-11-07T21:27:28.001Z,77.1
2018-11-07T21:32:28.881Z,76.8
2018-11-07T21:37:28.548Z,76.8
2018-11-07T21:42:28.165Z,76.8
2018-11-07T21:47:27.983Z,76.8
2018-11-07T21:52:27.553Z,76.8
2018-11-07T21:57:28.855Z,76.8
2018-11-07T22:02:27.696Z,76.8
2018-11-07T22:07:29.043Z,76.9
2018-11-07T22:12:28.765Z,76.7
2018-11-07T22:17:28.395Z,76.7
2018-11-07T22:22:28.699Z,76.7
2018-11-07T22:27:28.509Z,76.7
2018-11-07T22:32:27.930Z,77.0
2018-11-07T22:37:27.635Z,76.9
2018-11-07T22:42:28.669Z,76.8
2018-11-07T22:47:29.032Z,77.0
2018-11-07T22:52:28.456Z,76.9
2018-11-07T22:57:28.371Z,76.9
2018-11-07T23:02:28.120Z,76.8
2018-11-07T23:07:27.976Z,76.8
2018-11-07T23:12:29.308Z,76.7
2018-11-07T23:22:46.036Z,76.6
2018-11-07T23:27:45.499Z,76.8
2018-11-07T23:32:44.633Z,76.8
2018-11-07T23:37:45.326Z,76.8
2018-11-07T23:42:44.108Z,76.8
2018-11-07T23:47:44.620Z,77.1
2018-11-07T23:52:44.842Z,76.9
2018-11-07T23:57:44.656Z,77.0
